createdAt,value
2023-07-20T00:00:43.323Z,49.89
2023-07-20T00:03:10.233Z,50.08
2023-07-20T00:05:37.137Z,50.21
2023-07-20T00:08:04.001Z,49.99
2023-07-20T00:10:30.937Z,49.76
2023-07-20T00:12:57.782Z,49.77
2023-07-20T00:15:24.622Z,50.00
2023-07-20T00:17:51.675Z,49.86
2023-07-20T00:20:18.782Z,49.89
2023-07-20T00:22:45.760Z,49.86
2023-07-20T00:25:12.658Z,49.69
2023-07-20T00:27:39.765Z,50.05
2023-07-20T00:30:06.598Z,50.17
2023-07-20T00:32:33.662Z,49.87
2023-07-20T00:35:00.508Z,49.94
2023-07-20T00:37:27.330Z,50.04
2023-07-20T00:39:54.254Z,50.42
2023-07-20T00:42:21.240Z,50.26
2023-07-20T00:44:48.101Z,50.22
2023-07-20T00:47:15.184Z,50.36
2023-07-20T00:49:42.055Z,50.39
2023-07-20T00:52:08.929Z,50.35
2023-07-20T00:54:35.815Z,50.24
2023-07-20T00:57:02.813Z,50.14
2023-07-20T00:59:29.770Z,50.25
2023-07-20T01:01:56.706Z,49.88
2023-07-20T01:04:23.657Z,49.97
2023-07-20T01:06:50.602Z,50.15
2023-07-20T01:09:17.398Z,50.30
2023-07-20T01:11:44.251Z,50.30
2023-07-20T01:14:11.283Z,49.92
2023-07-20T01:16:38.236Z,50.22
2023-07-20T01:19:05.144Z,50.44
2023-07-20T01:21:32.200Z,50.17
2023-07-20T01:23:59.161Z,50.40
2023-07-20T01:26:26.072Z,50.26
2023-07-20T01:28:53.108Z,50.31
2023-07-20T01:31:20.085Z,50.31
2023-07-20T01:33:46.910Z,50.25
2023-07-20T01:36:13.788Z,50.12
2023-07-20T01:38:40.693Z,50.44
2023-07-20T01:41:07.631Z,50.33
2023-07-20T01:43:34.622Z,50.40
2023-07-20T01:46:01.583Z,50.26
2023-07-20T01:48:28.464Z,50.60
2023-07-20T01:50:55.566Z,50.10
2023-07-20T01:53:22.400Z,50.08
2023-07-20T01:55:49.233Z,50.35
2023-07-20T01:58:16.118Z,50.32
2023-07-20T02:00:42.909Z,50.41
2023-07-20T02:03:09.789Z,50.47
2023-07-20T02:05:36.684Z,50.29
2023-07-20T02:08:03.675Z,50.06
2023-07-20T02:10:30.727Z,50.36
2023-07-20T02:12:57.607Z,50.37
2023-07-20T02:15:24.676Z,50.43
2023-07-20T02:17:51.632Z,50.06
2023-07-20T02:20:18.580Z,50.22
2023-07-20T02:22:45.453Z,50.30
2023-07-20T02:25:12.404Z,50.14
2023-07-20T02:27:39.268Z,50.24
2023-07-20T02:30:06.207Z,50.30
2023-07-20T02:32:33.307Z,50.15
2023-07-20T02:35:00.453Z,50.22
2023-07-20T02:37:27.290Z,50.45
2023-07-20T02:39:54.389Z,50.09
2023-07-20T02:42:21.317Z,50.24
2023-07-20T02:44:48.190Z,50.17
2023-07-20T02:47:15.064Z,50.19
2023-07-20T02:49:41.995Z,50.32
2023-07-20T02:52:08.896Z,50.18
2023-07-20T02:54:35.873Z,50.09
2023-07-20T02:57:02.768Z,50.41
2023-07-20T02:59:29.856Z,50.25
2023-07-20T03:01:56.830Z,50.10
2023-07-20T03:04:23.777Z,50.54
2023-07-20T03:06:50.880Z,50.47
2023-07-20T03:09:17.794Z,50.36
2023-07-20T03:11:44.629Z,50.19
2023-07-20T03:14:11.848Z,50.28
2023-07-20T03:16:38.740Z,50.22
2023-07-20T03:19:05.590Z,50.27
2023-07-20T03:21:32.515Z,50.12
2023-07-20T03:23:59.371Z,50.13
2023-07-20T03:26:26.436Z,50.42
2023-07-20T03:28:53.358Z,50.32
2023-07-20T03:31:20.467Z,49.86
2023-07-20T03:33:47.338Z,50.44
2023-07-20T03:36:14.190Z,50.42
2023-07-20T03:38:41.224Z,50.52
2023-07-20T03:41:08.092Z,50.35
2023-07-20T03:43:34.944Z,50.47
2023-07-20T03:46:01.942Z,50.13
2023-07-20T03:48:28.821Z,50.45
2023-07-20T03:50:55.883Z,50.24
2023-07-20T03:53:22.802Z,50.62
2023-07-20T03:55:49.815Z,50.27
2023-07-20T03:58:16.686Z,50.27
2023-07-20T04:00:43.505Z,50.47
2023-07-20T04:03:10.445Z,50.60
2023-07-20T04:05:37.333Z,50.39
2023-07-20T04:08:04.367Z,50.51
2023-07-20T04:10:31.339Z,50.29
2023-07-20T04:12:58.152Z,50.43
2023-07-20T04:15:25.017Z,50.56
2023-07-20T04:17:52.045Z,50.40
2023-07-20T04:20:18.938Z,50.19
2023-07-20T04:22:45.845Z,50.48
2023-07-20T04:25:12.855Z,50.44
2023-07-20T04:27:39.866Z,50.50
2023-07-20T04:30:06.818Z,50.46
2023-07-20T04:32:33.877Z,50.60
2023-07-20T04:35:01.006Z,50.35
2023-07-20T04:37:27.845Z,50.21
2023-07-20T04:39:54.894Z,50.67
2023-07-20T04:42:21.907Z,50.74
2023-07-20T04:44:48.774Z,50.68
2023-07-20T04:47:15.813Z,50.54
2023-07-20T04:49:42.705Z,50.62
2023-07-20T04:52:10.250Z,50.70
2023-07-20T04:54:37.244Z,50.60
2023-07-20T04:57:04.189Z,50.66
2023-07-20T04:59:31.012Z,50.64
2023-07-20T05:01:57.928Z,50.54
2023-07-20T05:04:24.974Z,50.60
2023-07-20T05:06:52.066Z,50.79
2023-07-20T05:09:18.983Z,50.48
2023-07-20T05:11:45.791Z,50.54
2023-07-20T05:14:12.665Z,50.56
2023-07-20T05:16:39.687Z,50.87
2023-07-20T05:19:06.672Z,50.18
2023-07-20T05:21:33.491Z,50.59
2023-07-20T05:24:00.388Z,50.77
2023-07-20T05:26:27.265Z,50.61
2023-07-20T05:28:54.257Z,50.55
2023-07-20T05:31:21.232Z,50.69
2023-07-20T05:33:48.116Z,50.88
2023-07-20T05:36:14.969Z,50.87
2023-07-20T05:38:41.821Z,50.67
2023-07-20T05:41:08.652Z,50.71
2023-07-20T05:43:35.568Z,50.63
2023-07-20T05:46:02.463Z,50.84
2023-07-20T05:48:29.342Z,50.63
2023-07-20T05:50:56.300Z,50.60
2023-07-20T05:53:23.252Z,50.65
2023-07-20T05:55:50.190Z,50.89
2023-07-20T05:58:17.106Z,50.34
2023-07-20T06:00:43.939Z,50.76
2023-07-20T06:03:11.079Z,50.79
2023-07-20T06:05:37.996Z,50.31
2023-07-20T06:08:04.826Z,50.36
2023-07-20T06:10:31.683Z,50.70
2023-07-20T06:12:58.488Z,50.65
2023-07-20T06:15:25.388Z,50.73
2023-07-20T06:17:52.422Z,50.90
2023-07-20T06:20:19.368Z,50.79
2023-07-20T06:22:46.243Z,50.85
2023-07-20T06:25:13.333Z,50.86
2023-07-20T06:27:40.224Z,50.67
2023-07-20T06:30:07.051Z,50.82
2023-07-20T06:32:34.169Z,50.80
2023-07-20T06:35:01.089Z,50.80
2023-07-20T06:37:27.932Z,50.70
2023-07-20T06:42:24.712Z,50.89
2023-07-20T06:44:51.596Z,51.08
2023-07-20T06:47:18.411Z,51.17
2023-07-20T06:49:45.263Z,50.89
2023-07-20T06:52:12.356Z,51.03
2023-07-20T06:54:44.955Z,50.73
2023-07-20T06:59:42.463Z,51.02
2023-07-20T07:02:14.518Z,50.93
2023-07-20T07:04:42.065Z,50.97
2023-07-20T07:07:08.989Z,51.13
2023-07-20T07:09:35.829Z,50.99
2023-07-20T07:12:03.606Z,51.02
2023-07-20T07:14:30.546Z,51.12
2023-07-20T07:16:58.458Z,51.35
2023-07-20T07:19:25.527Z,51.17
2023-07-20T07:21:52.398Z,50.99
2023-07-20T07:24:20.415Z,51.12
2023-07-20T07:26:47.385Z,51.04
2023-07-20T07:29:14.201Z,51.21
2023-07-20T07:31:41.023Z,50.90
2023-07-20T07:34:07.939Z,50.99
2023-07-20T07:36:34.814Z,51.36
2023-07-20T07:41:31.827Z,51.11
2023-07-20T07:43:58.735Z,51.34
2023-07-20T07:46:25.871Z,51.20
2023-07-20T07:48:52.967Z,51.57
2023-07-20T07:51:19.771Z,51.05
2023-07-20T07:53:46.649Z,51.20
2023-07-20T07:56:13.564Z,51.24
2023-07-20T07:58:40.470Z,51.13
2023-07-20T08:01:10.382Z,51.51
2023-07-20T08:03:37.441Z,51.25
2023-07-20T08:06:04.397Z,51.02
2023-07-20T08:08:32.099Z,51.42
2023-07-20T08:10:58.986Z,51.36
2023-07-20T08:13:26.073Z,51.44
2023-07-20T08:15:53.146Z,51.33
2023-07-20T08:18:20.350Z,51.23
2023-07-20T08:20:47.476Z,51.29
2023-07-20T08:23:14.390Z,51.32
2023-07-20T08:25:41.322Z,51.25
2023-07-20T08:28:08.231Z,51.28
2023-07-20T08:30:35.299Z,51.32
2023-07-20T08:33:02.131Z,51.26
2023-07-20T08:35:28.993Z,51.13
2023-07-20T08:37:58.456Z,51.50
2023-07-20T08:40:25.501Z,51.39
2023-07-20T08:42:52.570Z,51.60
2023-07-20T08:45:19.436Z,51.50
2023-07-20T08:47:46.349Z,51.64
2023-07-20T08:50:13.212Z,51.27
2023-07-20T08:52:40.091Z,51.40
2023-07-20T08:55:07.019Z,51.54
2023-07-20T08:57:33.898Z,51.28
2023-07-20T09:00:00.749Z,51.03
2023-07-20T09:02:27.897Z,51.68
2023-07-20T09:04:54.978Z,51.68
2023-07-20T09:07:22.003Z,51.39
2023-07-20T09:09:48.880Z,51.40
2023-07-20T09:12:15.753Z,51.46
2023-07-20T09:14:42.756Z,51.57
2023-07-20T09:17:11.108Z,51.53
2023-07-20T09:19:38.018Z,51.38
2023-07-20T09:22:05.053Z,51.57
2023-07-20T09:24:31.910Z,51.27
2023-07-20T09:26:58.808Z,51.72
2023-07-20T09:29:25.679Z,51.54
2023-07-20T09:32:01.121Z,51.35
2023-07-20T09:36:59.927Z,51.39
2023-07-20T09:39:30.105Z,51.30
2023-07-20T09:42:34.573Z,51.50
2023-07-20T09:47:14.029Z,51.08
2023-07-20T09:52:10.750Z,51.19
2023-07-20T09:54:37.560Z,51.26
2023-07-20T09:57:04.594Z,51.21
2023-07-20T09:59:31.554Z,51.24
2023-07-20T10:01:58.545Z,51.38
2023-07-20T10:04:25.412Z,51.46
2023-07-20T10:06:52.253Z,51.54
2023-07-20T10:09:19.106Z,51.49
2023-07-20T10:11:46.076Z,51.53
2023-07-20T10:14:13.073Z,51.54
2023-07-20T10:16:39.944Z,51.54
2023-07-20T10:19:17.503Z,51.55
2023-07-20T10:21:45.182Z,51.70
2023-07-20T10:24:12.039Z,51.47
2023-07-20T10:26:40.436Z,51.41
2023-07-20T10:29:09.218Z,51.41
2023-07-20T10:31:36.241Z,51.56
2023-07-20T10:34:03.288Z,51.57
2023-07-20T10:36:32.186Z,51.55
2023-07-20T10:38:59.378Z,51.79
2023-07-20T10:41:26.238Z,51.51
2023-07-20T10:43:53.172Z,52.01
2023-07-20T10:46:20.143Z,51.61
2023-07-20T10:48:47.042Z,51.69
2023-07-20T10:51:13.907Z,51.46
2023-07-20T10:53:40.781Z,51.57
2023-07-20T10:56:07.667Z,51.91
2023-07-20T10:58:34.717Z,51.65
2023-07-20T11:01:01.682Z,51.75
2023-07-20T11:03:30.124Z,51.79
2023-07-20T11:05:59.358Z,51.46
2023-07-20T11:08:26.487Z,51.56
2023-07-20T11:10:53.478Z,51.44
2023-07-20T11:13:20.378Z,51.28
2023-07-20T11:15:48.367Z,51.41
2023-07-20T11:18:15.541Z,51.54
2023-07-20T11:20:42.540Z,51.49
2023-07-20T11:23:09.437Z,51.14
2023-07-20T11:25:36.330Z,51.46
2023-07-20T11:28:03.419Z,51.36
2023-07-20T11:30:30.300Z,51.32
2023-07-20T11:32:57.399Z,51.12
2023-07-20T11:35:24.341Z,51.30
2023-07-20T11:37:51.221Z,51.42
2023-07-20T11:40:18.256Z,51.39
2023-07-20T11:45:15.169Z,51.25
2023-07-20T11:47:42.176Z,51.31
2023-07-20T11:50:09.042Z,51.32
2023-07-20T11:52:36.022Z,51.22
2023-07-20T11:55:03.283Z,51.21
2023-07-20T11:57:30.201Z,51.42
2023-07-20T11:59:57.203Z,51.41
2023-07-20T12:02:24.240Z,51.20
2023-07-20T12:04:51.170Z,51.32
2023-07-20T12:07:17.991Z,51.22
2023-07-20T12:09:51.608Z,51.42
2023-07-20T12:12:19.132Z,51.26
2023-07-20T12:14:45.992Z,51.26
2023-07-20T12:17:13.112Z,51.05
2023-07-20T12:19:40.142Z,51.17
2023-07-20T12:22:07.083Z,51.19
2023-07-20T12:24:34.056Z,51.36
2023-07-20T12:27:00.909Z,51.13
2023-07-20T12:29:27.943Z,51.31
2023-07-20T12:31:54.946Z,51.15
2023-07-20T12:34:21.863Z,51.23
2023-07-20T12:36:48.750Z,51.13
2023-07-20T12:39:15.792Z,51.08
2023-07-20T12:41:42.736Z,51.20
2023-07-20T12:44:09.627Z,51.31
2023-07-20T12:46:36.689Z,50.77
2023-07-20T12:49:03.640Z,51.24
2023-07-20T12:51:30.465Z,51.19
2023-07-20T12:53:57.610Z,51.15
2023-07-20T12:58:54.472Z,51.05
2023-07-20T13:01:21.446Z,51.04
2023-07-20T13:08:47.931Z,51.04
2023-07-20T13:11:14.911Z,51.19
2023-07-20T13:13:41.871Z,51.11
2023-07-20T13:16:08.771Z,51.02
2023-07-20T13:18:36.251Z,51.10
2023-07-20T13:21:03.382Z,50.99
2023-07-20T13:23:30.222Z,51.08
2023-07-20T13:25:57.164Z,50.98
2023-07-20T13:28:25.151Z,50.99
2023-07-20T13:30:52.060Z,51.00
2023-07-20T13:33:19.729Z,50.71
2023-07-20T13:35:49.981Z,50.99
2023-07-20T13:38:17.508Z,50.86
2023-07-20T13:40:44.654Z,50.77
2023-07-20T13:43:11.731Z,50.77
2023-07-20T13:45:40.069Z,50.64
2023-07-20T13:48:07.702Z,50.83
2023-07-20T13:58:04.540Z,50.77
2023-07-20T14:00:31.427Z,50.44
2023-07-20T14:07:58.104Z,50.64
2023-07-20T14:10:25.217Z,50.60
2023-07-20T14:12:52.188Z,50.38
2023-07-20T14:15:19.114Z,50.71
2023-07-20T14:17:46.102Z,50.55
2023-07-20T14:22:43.017Z,50.37
2023-07-20T14:25:09.946Z,50.41
2023-07-20T14:27:38.328Z,50.34
2023-07-20T14:30:05.274Z,50.52
2023-07-20T14:34:59.912Z,50.49
2023-07-20T14:37:29.407Z,50.33
2023-07-20T14:39:56.682Z,50.31
2023-07-20T14:42:23.543Z,50.29
2023-07-20T14:44:50.833Z,50.33
2023-07-20T14:47:19.585Z,50.52
2023-07-20T14:49:46.800Z,50.30
2023-07-20T14:52:16.571Z,50.53
2023-07-20T14:54:43.833Z,50.53
2023-07-20T14:57:10.678Z,50.46
2023-07-20T14:59:37.505Z,50.33
2023-07-20T15:02:04.326Z,50.47
2023-07-20T15:04:31.208Z,50.51
2023-07-20T15:06:58.182Z,50.47
2023-07-20T15:09:25.058Z,50.59
2023-07-20T15:11:51.958Z,50.53
2023-07-20T15:14:18.758Z,50.33
2023-07-20T15:16:48.260Z,50.39
2023-07-20T15:19:16.446Z,50.52
2023-07-20T15:21:43.649Z,50.36
2023-07-20T15:24:10.615Z,50.86
2023-07-20T15:26:37.616Z,50.54
2023-07-20T15:29:04.574Z,50.53
2023-07-20T15:34:14.941Z,50.99
2023-07-20T15:36:41.874Z,50.66
2023-07-20T15:39:08.783Z,50.53
2023-07-20T15:41:35.585Z,50.69
2023-07-20T15:44:04.025Z,50.63
2023-07-20T15:46:30.997Z,50.55
2023-07-20T15:48:57.898Z,50.53
2023-07-20T15:51:24.972Z,50.49
2023-07-20T15:53:51.991Z,50.69
2023-07-20T15:56:18.848Z,50.44
2023-07-20T15:58:46.448Z,50.66
2023-07-20T16:01:13.621Z,50.52
2023-07-20T16:03:40.428Z,50.36
2023-07-20T16:06:07.424Z,50.49
2023-07-20T16:08:34.484Z,50.45
2023-07-20T16:11:01.438Z,50.61
2023-07-20T16:13:28.404Z,50.61
2023-07-20T16:15:55.289Z,50.38
2023-07-20T16:18:22.119Z,50.37
2023-07-20T16:20:49.106Z,50.40
2023-07-20T16:23:16.016Z,50.47
2023-07-20T16:25:42.866Z,50.60
2023-07-20T16:28:09.665Z,50.73
2023-07-20T16:30:36.510Z,50.52
2023-07-20T16:33:03.607Z,50.48
2023-07-20T16:45:30.046Z,50.72
2023-07-20T16:47:57.169Z,50.60
2023-07-20T16:50:24.200Z,50.87
2023-07-20T16:52:51.112Z,50.68
2023-07-20T16:55:17.988Z,50.68
2023-07-20T16:57:45.068Z,50.82
2023-07-20T17:00:11.972Z,50.75
2023-07-20T17:02:38.962Z,51.02
2023-07-20T17:05:05.848Z,50.87
2023-07-20T17:07:32.975Z,50.86
2023-07-20T17:09:59.870Z,50.93
2023-07-20T17:12:26.694Z,50.74
2023-07-20T17:14:53.614Z,50.91
2023-07-20T17:17:20.454Z,50.95
2023-07-20T17:19:47.296Z,51.13
2023-07-20T17:22:14.163Z,51.02
2023-07-20T17:29:40.682Z,51.25
2023-07-20T17:32:07.715Z,50.85
2023-07-20T17:34:34.724Z,50.71
2023-07-20T17:42:01.132Z,50.83
2023-07-20T17:44:27.971Z,50.97
2023-07-20T17:49:24.472Z,50.96
2023-07-20T17:51:51.354Z,50.81
2023-07-20T17:54:18.185Z,50.82
2023-07-20T17:56:45.044Z,50.98
2023-07-20T17:59:11.933Z,51.05
2023-07-20T18:01:38.986Z,50.90
2023-07-20T18:04:08.926Z,51.23
2023-07-20T18:06:36.315Z,50.85
2023-07-20T18:09:03.117Z,50.80
2023-07-20T18:11:30.093Z,51.00
2023-07-20T18:13:56.877Z,50.93
2023-07-20T18:16:24.018Z,50.85
2023-07-20T18:18:50.955Z,51.09
2023-07-20T18:21:17.855Z,51.00
2023-07-20T18:23:44.734Z,50.99
2023-07-20T18:26:11.638Z,50.96
2023-07-20T18:28:38.507Z,51.05
2023-07-20T18:31:05.403Z,50.87
2023-07-20T18:33:32.311Z,51.00
2023-07-20T18:35:59.177Z,51.07
2023-07-20T18:38:25.984Z,51.26
2023-07-20T18:40:52.795Z,51.09
2023-07-20T18:43:19.870Z,51.08
2023-07-20T18:45:46.847Z,51.00
2023-07-20T18:48:13.753Z,50.87
2023-07-20T18:50:40.581Z,51.11
2023-07-20T18:53:07.495Z,50.86
2023-07-20T18:55:34.303Z,50.97
2023-07-20T18:58:01.148Z,51.13
2023-07-20T19:00:27.986Z,51.08
2023-07-20T19:02:54.990Z,50.97
2023-07-20T19:05:21.896Z,51.15
2023-07-20T19:07:48.808Z,51.18
2023-07-20T19:10:15.674Z,51.54
2023-07-20T19:12:42.590Z,50.95
2023-07-20T19:15:09.451Z,51.41
2023-07-20T19:17:36.368Z,51.21
2023-07-20T19:20:03.485Z,51.17
2023-07-20T19:22:30.509Z,51.21
2023-07-20T19:24:57.418Z,51.40
2023-07-20T19:27:24.207Z,51.29
2023-07-20T19:29:51.030Z,51.14
2023-07-20T19:32:17.835Z,51.12
2023-07-20T19:34:45.147Z,50.96
2023-07-20T19:37:11.987Z,51.41
2023-07-20T19:39:39.134Z,51.35
2023-07-20T19:42:05.973Z,51.28
2023-07-20T19:44:33.028Z,51.33
2023-07-20T19:47:00.019Z,51.17
2023-07-20T19:49:28.945Z,51.04
2023-07-20T19:51:55.978Z,51.21
2023-07-20T19:56:52.639Z,51.25
2023-07-20T19:59:19.738Z,51.36
2023-07-20T20:01:46.581Z,51.27
2023-07-20T20:06:43.639Z,51.30
2023-07-20T20:09:10.564Z,51.29
2023-07-20T20:11:37.556Z,51.52
2023-07-20T20:14:04.506Z,51.40
2023-07-20T20:16:31.405Z,51.41
2023-07-20T20:18:58.382Z,51.67
2023-07-20T20:21:25.278Z,51.61
2023-07-20T20:23:52.163Z,51.62
2023-07-20T20:26:19.083Z,51.48
2023-07-20T20:28:46.033Z,51.56
2023-07-20T20:31:12.905Z,51.40
2023-07-20T20:33:39.958Z,51.41
2023-07-20T20:36:07.068Z,51.67
2023-07-20T20:38:34.116Z,51.71
2023-07-20T20:41:01.140Z,51.58
2023-07-20T20:43:28.067Z,51.60
2023-07-20T20:45:55.066Z,51.50
2023-07-20T20:48:21.884Z,51.49
2023-07-20T20:50:48.940Z,51.26
2023-07-20T20:53:16.049Z,51.39
2023-07-20T20:55:42.959Z,51.29
2023-07-20T20:58:09.825Z,51.36
2023-07-20T21:00:36.924Z,51.38
2023-07-20T21:03:04.046Z,51.79
2023-07-20T21:05:30.943Z,51.73
2023-07-20T21:07:59.041Z,51.93
2023-07-20T21:10:25.915Z,51.71
2023-07-20T21:12:52.817Z,51.91
2023-07-20T21:15:19.814Z,51.77
2023-07-20T21:17:46.814Z,51.82
2023-07-20T21:20:13.765Z,51.90
2023-07-20T21:22:40.622Z,51.71
2023-07-20T21:25:07.455Z,51.45
2023-07-20T21:27:34.431Z,52.11
2023-07-20T21:30:01.299Z,51.87
2023-07-20T21:32:28.213Z,51.43
2023-07-20T21:34:55.080Z,51.66
2023-07-20T21:37:21.899Z,51.82
2023-07-20T21:39:48.794Z,51.39
2023-07-20T21:42:15.725Z,51.55
2023-07-20T21:44:42.572Z,51.92
2023-07-20T21:47:09.460Z,52.10
2023-07-20T21:49:36.342Z,51.48
2023-07-20T21:52:03.227Z,52.09
2023-07-20T21:54:30.306Z,52.03
2023-07-20T21:56:57.169Z,52.07
2023-07-20T21:59:24.216Z,51.89
2023-07-20T22:01:59.853Z,52.01
2023-07-20T22:04:27.596Z,51.86
2023-07-20T22:06:54.962Z,51.96
2023-07-20T22:09:21.835Z,52.04
2023-07-20T22:11:48.973Z,51.92
2023-07-20T22:14:15.814Z,51.96
2023-07-20T22:16:42.728Z,51.85
2023-07-20T22:19:09.605Z,52.04
2023-07-20T22:21:36.518Z,52.03
2023-07-20T22:24:03.354Z,52.05
2023-07-20T22:26:30.474Z,51.97
2023-07-20T22:28:57.277Z,51.80
2023-07-20T22:34:08.400Z,51.62
2023-07-20T22:36:35.273Z,51.93
2023-07-20T22:39:02.083Z,52.00
2023-07-20T22:41:28.981Z,51.88
2023-07-20T22:43:55.909Z,51.86
2023-07-20T22:46:22.776Z,51.93
2023-07-20T22:48:49.899Z,52.08
2023-07-20T22:51:16.845Z,51.92
2023-07-20T22:53:43.723Z,51.98
2023-07-20T22:56:10.612Z,51.96
2023-07-20T22:58:37.728Z,51.94
2023-07-20T23:01:04.706Z,51.83
2023-07-20T23:03:31.686Z,52.24
2023-07-20T23:05:58.941Z,51.90
2023-07-20T23:08:25.826Z,52.06
2023-07-20T23:10:52.727Z,51.95
2023-07-20T23:13:19.752Z,52.09
2023-07-20T23:15:46.824Z,51.66
2023-07-20T23:18:13.772Z,52.07
2023-07-20T23:20:40.661Z,51.99
2023-07-20T23:23:07.579Z,51.98
2023-07-20T23:25:34.429Z,51.91
2023-07-20T23:28:01.337Z,52.10
2023-07-20T23:30:28.194Z,52.02
2023-07-20T23:32:55.273Z,51.89
2023-07-20T23:35:22.090Z,51.96
2023-07-20T23:37:48.915Z,52.08
2023-07-20T23:40:16.009Z,52.09
2023-07-20T23:42:42.899Z,51.91
2023-07-20T23:45:09.851Z,52.06
2023-07-20T23:47:36.865Z,51.77
2023-07-20T23:50:03.703Z,51.87
2023-07-20T23:52:30.759Z,51.83
2023-07-20T23:54:57.645Z,51.68
2023-07-20T23:57:24.638Z,51.96
2023-07-20T23:59:51.577Z,51.98
